Time;durP1;ratioP1;P1;durP2;ratioP2;P2;SDS_P1;SDS_P2;PMS_P1;PMS_P2;Temp;Humidity;BMP_temperature;BMP_pressure;BME280_temperature;BME280_humidity;BME280_pressure;Samples;Min_cycle;Max_cycle;Signal;HPM_P1;HPM_P2
2021/10/20 00:01:54;;;;;;;7.35;4.10;;;;;;;14.40;60.62;99029.69;2618457;54;20026;-66
2021/10/20 00:04:27;;;;;;;6.30;4.55;;;;;;;14.38;60.50;99028.06;2618375;54;20034;-65
2021/10/20 00:06:59;;;;;;;4.40;3.60;;;;;;;14.40;60.91;99019.03;2619710;54;20534;-66
2021/10/20 00:09:28;;;;;;;4.35;3.72;;;;;;;14.42;61.09;99017.81;2623243;54;20038;-65
2021/10/20 00:11:58;;;;;;;5.65;3.70;;;;;;;14.43;61.11;99000.81;2623428;54;20058;-66
2021/10/20 00:14:28;;;;;;;6.47;4.00;;;;;;;14.42;60.86;98995.72;2622918;54;20054;-66
2021/10/20 00:16:57;;;;;;;4.60;4.10;;;;;;;14.39;61.33;98991.63;2622914;54;20034;-66
2021/10/20 00:19:29;;;;;;;6.43;4.93;;;;;;;14.40;61.00;98982.63;2624086;39;20413;-66
2021/10/20 00:21:59;;;;;;;6.65;4.82;;;;;;;14.36;61.39;98976.09;2623810;39;20440;-65
2021/10/20 00:24:29;;;;;;;4.35;3.80;;;;;;;14.37;61.67;98975.09;2623201;54;20049;-67
2021/10/20 00:26:58;;;;;;;4.32;3.92;;;;;;;14.38;61.73;98974.88;2622439;47;20034;-67
2021/10/20 00:29:28;;;;;;;5.15;3.97;;;;;;;14.38;61.29;98985.50;2622829;54;20141;-67
2021/10/20 00:31:57;;;;;;;5.50;4.30;;;;;;;14.40;61.37;98987.13;2622626;54;20018;-65
2021/10/20 00:34:29;;;;;;;5.00;4.07;;;;;;;14.38;61.40;98985.50;2621960;54;20034;-65
2021/10/20 00:36:59;;;;;;;6.82;4.32;;;;;;;14.32;62.01;98989.00;2623860;54;20034;-65
2021/10/20 00:39:29;;;;;;;4.72;4.32;;;;;;;14.33;62.14;98988.00;2623491;54;20038;-65
2021/10/20 00:41:58;;;;;;;7.65;4.50;;;;;;;14.31;62.27;98984.72;2623533;54;20572;-65
2021/10/20 00:44:28;;;;;;;5.30;4.53;;;;;;;14.36;62.04;98981.41;2623734;54;20031;-65
2021/10/20 00:46:58;;;;;;;4.30;3.85;;;;;;;14.35;62.00;98977.13;2623725;46;20050;-65
2021/10/20 00:49:30;;;;;;;5.70;4.05;;;;;;;14.35;62.18;98974.47;2622336;54;20116;-66
2021/10/20 00:52:00;;;;;;;6.13;4.00;;;;;;;14.38;62.23;98980.19;2622018;54;20022;-66
2021/10/20 00:54:30;;;;;;;5.22;4.13;;;;;;;14.35;62.42;98983.25;2622079;54;20038;-65
2021/10/20 00:57:00;;;;;;;5.78;4.38;;;;;;;14.34;62.21;98983.50;2622787;39;20474;-67
2021/10/20 00:59:30;;;;;;;7.75;4.57;;;;;;;14.32;62.60;98978.38;2622222;54;20026;-65
2021/10/20 01:01:59;;;;;;;6.93;4.32;;;;;;;14.34;62.74;98970.19;2621924;54;20039;-65
2021/10/20 01:04:32;;;;;;;4.60;4.10;;;;;;;14.35;62.71;98969.16;2621646;47;20039;-66
2021/10/20 01:07:02;;;;;;;4.60;4.10;;;;;;;14.33;62.62;98965.91;2623342;54;20042;-65
2021/10/20 01:09:31;;;;;;;8.77;4.65;;;;;;;14.32;63.05;98967.72;2623951;54;20050;-65
2021/10/20 01:12:01;;;;;;;9.98;5.15;;;;;;;14.33;62.98;98974.69;2624490;54;20073;-66
2021/10/20 01:14:31;;;;;;;5.95;5.10;;;;;;;14.31;63.30;98960.78;2625412;54;20038;-65
2021/10/20 01:17:01;;;;;;;4.75;4.35;;;;;;;14.32;63.01;98965.06;2624724;54;20033;-65
2021/10/20 01:19:35;;;;;;;4.50;4.10;;;;;;;14.33;62.92;98956.09;2625045;54;20037;-65
2021/10/20 01:22:07;;;;;;;5.13;3.92;;;;;;;14.34;63.48;98962.22;2624976;54;20565;-65
2021/10/20 01:24:37;;;;;;;6.47;4.90;;;;;;;14.32;63.41;98949.09;2625240;54;20026;-65
2021/10/20 01:27:07;;;;;;;5.03;4.40;;;;;;;14.29;63.49;98944.25;2625565;39;20435;-65
2021/10/20 01:29:37;;;;;;;5.57;4.50;;;;;;;14.31;63.71;98942.16;2625186;54;20030;-66
2021/10/20 01:32:08;;;;;;;7.18;4.60;;;;;;;14.32;63.73;98937.66;2624319;47;20042;-65
2021/10/20 01:34:38;;;;;;;5.22;4.70;;;;;;;14.32;63.36;98929.69;2624913;54;20037;-66
2021/10/20 01:37:12;;;;;;;5.50;4.57;;;;;;;14.31;63.87;98925.41;2625110;54;20029;-66
2021/10/20 01:39:41;;;;;;;6.32;5.18;;;;;;;14.30;63.71;98915.81;2624752;47;20030;-66
2021/10/20 01:42:11;;;;;;;7.60;5.13;;;;;;;14.30;64.12;98921.13;2625645;39;20478;-66
2021/10/20 01:44:40;;;;;;;5.25;4.75;;;;;;;14.28;63.75;98917.84;2624971;54;20030;-66
2021/10/20 01:47:10;;;;;;;5.13;4.63;;;;;;;14.27;64.33;98906.41;2625237;54;20041;-66
2021/10/20 01:49:43;;;;;;;7.10;4.95;;;;;;;14.28;64.25;98897.38;2624781;47;20054;-66
2021/10/20 01:52:16;;;;;;;5.45;4.95;;;;;;;14.28;63.90;98897.38;2622900;47;20557;-66
2021/10/20 01:54:45;;;;;;;4.93;4.47;;;;;;;14.29;64.21;98895.56;2623268;54;20030;-67
2021/10/20 01:57:15;;;;;;;6.38;4.70;;;;;;;14.29;64.44;98896.38;2623063;54;20045;-66
2021/10/20 01:59:45;;;;;;;6.10;4.60;;;;;;;14.28;64.14;98893.91;2624642;54;20034;-66
2021/10/20 02:02:19;;;;;;;9.05;5.32;;;;;;;14.25;64.35;98889.03;2624267;54;20026;-67
2021/10/20 02:04:50;;;;;;;7.65;4.88;;;;;;;14.23;64.57;98883.91;2623626;54;20038;-66
2021/10/20 02:07:22;;;;;;;7.40;5.35;;;;;;;14.23;64.31;98878.59;2625069;54;20041;-67
2021/10/20 02:09:52;;;;;;;6.32;5.03;;;;;;;14.20;64.63;98872.91;2625144;54;20035;-66
2021/10/20 02:12:21;;;;;;;8.45;4.78;;;;;;;14.19;64.91;98864.13;2624797;54;20038;-66
2021/10/20 02:14:51;;;;;;;6.95;5.13;;;;;;;14.18;65.01;98862.50;2624601;54;20521;-66
2021/10/20 02:17:20;;;;;;;7.28;5.15;;;;;;;14.17;65.18;98850.22;2625352;54;20014;-67
2021/10/20 02:19:50;;;;;;;5.18;4.57;;;;;;;14.19;65.19;98864.13;2624812;47;20039;-67
2021/10/20 02:22:22;;;;;;;6.03;5.00;;;;;;;14.17;64.90;98850.22;2625044;54;20046;-67
2021/10/20 02:24:56;;;;;;;7.47;5.00;;;;;;;14.13;65.38;98844.53;2624649;47;20078;-66
2021/10/20 02:27:25;;;;;;;5.82;5.22;;;;;;;14.14;65.58;98832.03;2624368;54;20573;-66
2021/10/20 02:29:55;;;;;;;7.15;5.00;;;;;;;14.18;65.55;98835.09;2623447;47;20050;-67
2021/10/20 02:32:25;;;;;;;7.47;5.30;;;;;;;14.19;65.32;98828.75;2623652;54;20078;-67
2021/10/20 02:34:54;;;;;;;7.38;5.05;;;;;;;14.19;65.49;98834.06;2623618;39;20464;-67
2021/10/20 02:37:26;;;;;;;6.00;5.03;;;;;;;14.18;65.45;98829.78;2623288;39;20633;-66
2021/10/20 02:39:56;;;;;;;7.55;5.43;;;;;;;14.17;65.82;98828.97;2622436;54;20037;-65
2021/10/20 02:42:25;;;;;;;6.65;5.20;;;;;;;14.14;65.59;98826.72;2622660;54;20043;-67
2021/10/20 02:44:55;;;;;;;5.85;5.35;;;;;;;14.15;66.03;98820.38;2622788;54;20070;-67
2021/10/20 02:47:24;;;;;;;6.70;5.55;;;;;;;14.14;66.03;98818.75;2623013;54;20034;-66
2021/10/20 02:49:54;;;;;;;5.82;5.20;;;;;;;14.13;65.75;98817.94;2622720;54;20063;-66
2021/10/20 02:52:26;;;;;;;6.15;5.07;;;;;;;14.08;66.02;98812.47;2622511;54;20034;-67
2021/10/20 02:54:56;;;;;;;13.90;5.80;;;;;;;14.08;66.32;98812.47;2624005;54;20023;-66
2021/10/20 02:57:26;;;;;;;8.50;5.65;;;;;;;14.10;66.50;98812.25;2624016;54;20034;-67
2021/10/20 02:59:57;;;;;;;6.00;5.00;;;;;;;14.08;66.47;98799.19;2624089;54;20051;-66
2021/10/20 03:02:27;;;;;;;5.97;5.30;;;;;;;14.08;66.80;98798.34;2624174;54;20098;-65
2021/10/20 03:04:57;;;;;;;5.93;5.32;;;;;;;14.04;66.82;98799.78;2624087;54;20038;-66
2021/10/20 03:07:29;;;;;;;6.75;5.03;;;;;;;14.04;67.32;98805.09;2623453;54;20039;-66
2021/10/20 03:09:58;;;;;;;5.53;5.03;;;;;;;14.05;67.02;98814.72;2624023;54;20062;-66
2021/10/20 03:12:28;;;;;;;6.25;4.75;;;;;;;14.05;67.47;98812.06;2623582;54;20564;-66
2021/10/20 03:14:58;;;;;;;5.57;5.05;;;;;;;14.07;67.38;98807.34;2623766;54;20038;-66
2021/10/20 03:17:28;;;;;;;6.22;5.63;;;;;;;14.07;67.43;98813.47;2622318;54;20045;-68
2021/10/20 03:19:57;;;;;;;5.47;4.97;;;;;;;14.06;67.56;98801.22;2622954;39;20403;-66
2021/10/20 03:22:29;;;;;;;6.15;5.20;;;;;;;14.07;67.56;98805.50;2621536;47;20038;-66
2021/10/20 03:24:59;;;;;;;7.18;5.75;;;;;;;14.06;68.21;98805.72;2621697;54;20038;-66
2021/10/20 03:27:29;;;;;;;6.38;5.60;;;;;;;14.05;67.88;98818.19;2621818;54;20078;-67
2021/10/20 03:29:58;;;;;;;7.30;5.90;;;;;;;14.06;67.98;98813.69;2621608;54;20026;-67
2021/10/20 03:32:28;;;;;;;8.65;5.70;;;;;;;14.07;68.05;98810.81;2620840;54;20053;-67
2021/10/20 03:34:58;;;;;;;9.13;5.50;;;;;;;14.10;68.33;98798.94;2622235;54;20042;-67
2021/10/20 03:37:30;;;;;;;6.53;5.70;;;;;;;14.10;68.33;98797.09;2621427;54;20034;-66
2021/10/20 03:39:59;;;;;;;6.55;5.57;;;;;;;14.09;68.16;98794.66;2622421;54;20577;-66
2021/10/20 03:42:29;;;;;;;6.30;5.70;;;;;;;14.06;68.45;98793.25;2622000;54;20025;-67
2021/10/20 03:44:59;;;;;;;5.60;5.10;;;;;;;14.07;68.67;98792.19;2622478;54;20080;-67
2021/10/20 03:47:29;;;;;;;14.05;5.80;;;;;;;14.05;68.68;98780.19;2621443;47;20039;-67
2021/10/20 03:49:59;;;;;;;6.30;5.68;;;;;;;14.06;68.69;98789.78;2622223;54;20027;-67
2021/10/20 03:52:32;;;;;;;7.90;5.43;;;;;;;14.00;69.14;98778.16;2622208;54;20022;-66
2021/10/20 03:55:01;;;;;;;6.05;5.50;;;;;;;14.01;69.34;98776.31;2622250;54;20027;-67
2021/10/20 03:57:36;;;;;;;7.18;6.28;;;;;;;14.02;69.33;98791.22;2622181;54;20035;-68
2021/10/20 04:00:08;;;;;;;10.57;6.07;;;;;;;14.00;69.17;98795.94;2621256;54;20030;-67
2021/10/20 04:02:45;;;;;;;7.53;5.28;;;;;;;14.00;69.15;98787.97;2622863;47;20019;-65
2021/10/20 04:05:16;;;;;;;6.88;5.50;;;;;;;14.00;69.51;98783.50;2621350;54;20158;-65
2021/10/20 04:07:50;;;;;;;7.72;6.20;;;;;;;13.98;69.83;98774.91;2620750;54;20031;-65
2021/10/20 04:10:20;;;;;;;;;;;;;;;13.96;69.69;98779.63;2620935;54;20534;-65
2021/10/20 04:12:51;;;;;;;6.32;5.72;;;;;;;13.96;70.04;98774.31;2619912;54;19987;-65
2021/10/20 04:15:23;;;;;;;8.15;6.03;;;;;;;13.96;70.18;98763.69;2620390;54;20559;-65
2021/10/20 04:17:53;;;;;;;8.43;5.70;;;;;;;13.98;69.70;98768.78;2620447;54;20038;-65
2021/10/20 04:20:24;;;;;;;6.63;5.35;;;;;;;14.00;69.97;98770.19;2623636;47;20046;-66
2021/10/20 04:22:57;;;;;;;7.90;5.72;;;;;;;13.98;70.33;98776.75;2624769;54;20542;-65
2021/10/20 04:25:26;;;;;;;8.27;5.75;;;;;;;13.96;70.32;98778.78;2624383;54;20030;-66
2021/10/20 04:27:56;;;;;;;8.75;6.28;;;;;;;13.96;70.16;98770.81;2622697;47;20030;-65
2021/10/20 04:30:26;;;;;;;9.32;6.13;;;;;;;13.99;70.23;98783.69;2622046;54;20030;-65
2021/10/20 04:32:55;;;;;;;8.65;6.07;;;;;;;13.97;70.33;98775.94;2620750;47;20030;-65
2021/10/20 04:35:25;;;;;;;9.80;6.45;;;;;;;14.00;70.54;98769.34;2622043;54;20107;-65
2021/10/20 04:37:57;;;;;;;7.03;5.90;;;;;;;14.00;70.54;98772.00;2622047;54;20031;-67
2021/10/20 04:40:27;;;;;;;6.72;5.82;;;;;;;13.97;70.39;98781.25;2622062;54;20046;-67
2021/10/20 04:42:57;;;;;;;7.53;6.30;;;;;;;13.97;70.52;98778.59;2621322;39;20402;-67
2021/10/20 04:45:26;;;;;;;7.47;5.90;;;;;;;13.99;70.60;98786.34;2622758;39;20411;-67
2021/10/20 04:47:56;;;;;;;9.95;6.47;;;;;;;14.00;70.63;98782.66;2624499;54;20050;-67
2021/10/20 04:50:25;;;;;;;9.68;6.18;;;;;;;14.02;70.86;98773.44;2624418;54;20042;-67
2021/10/20 04:52:58;;;;;;;7.30;6.40;;;;;;;14.05;70.60;98774.88;2624145;54;20070;-67
2021/10/20 04:55:28;;;;;;;10.02;5.85;;;;;;;14.04;70.91;98768.75;2623580;54;20045;-67
2021/10/20 04:57:57;;;;;;;9.10;6.32;;;;;;;14.04;70.94;98763.41;2622308;46;20034;-67
2021/10/20 05:00:27;;;;;;;7.60;6.18;;;;;;;14.01;71.24;98766.50;2621210;47;20033;-67
2021/10/20 05:02:57;;;;;;;7.82;5.50;;;;;;;13.98;71.20;98760.81;2622085;54;20037;-67
2021/10/20 05:05:29;;;;;;;7.85;5.72;;;;;;;13.99;70.97;98757.09;2621954;47;20550;-67
2021/10/20 05:08:01;;;;;;;7.55;6.47;;;;;;;13.94;71.40;98751.63;2622799;54;20566;-65
2021/10/20 05:10:31;;;;;;;7.87;7.07;;;;;;;13.93;71.69;98748.16;2622836;39;20411;-66
2021/10/20 05:13:01;;;;;;;8.27;6.78;;;;;;;13.92;71.92;98751.84;2618953;54;20663;-65
2021/10/20 05:15:31;;;;;;;9.60;6.68;;;;;;;13.88;71.82;98740.84;2618479;54;20041;-65
2021/10/20 05:18:01;;;;;;;8.27;6.70;;;;;;;13.86;71.97;98732.25;2618705;54;20037;-65
2021/10/20 05:20:30;;;;;;;8.35;6.50;;;;;;;13.86;72.51;98734.09;2618499;54;20077;-65
2021/10/20 05:23:02;;;;;;;10.48;7.00;;;;;;;13.87;72.62;98725.09;2618332;54;20050;-65
2021/10/20 05:25:32;;;;;;;10.05;7.10;;;;;;;13.86;72.58;98712.84;2618589;54;20034;-64
2021/10/20 05:28:02;;;;;;;8.23;6.25;;;;;;;13.84;72.73;98705.09;2618746;39;20439;-65
2021/10/20 05:30:31;;;;;;;14.18;7.78;;;;;;;13.85;72.50;98701.41;2618915;39;20434;-64
2021/10/20 05:33:02;;;;;;;7.63;6.47;;;;;;;13.84;72.86;98702.44;2618369;54;20038;-64
2021/10/20 05:35:31;;;;;;;7.65;6.78;;;;;;;13.86;72.60;98700.38;2618562;54;20042;-64
2021/10/20 05:38:03;;;;;;;9.80;7.10;;;;;;;13.87;72.56;98702.00;2618466;54;20562;-64
2021/10/20 05:40:34;;;;;;;13.25;7.18;;;;;;;13.88;72.75;98702.81;2618483;54;20038;-64
2021/10/20 05:43:04;;;;;;;7.57;6.40;;;;;;;13.87;72.95;98702.00;2618553;39;20141;-64
2021/10/20 05:45:34;;;;;;;7.55;6.53;;;;;;;13.85;73.13;98705.91;2618405;54;20026;-64
2021/10/20 05:48:03;;;;;;;8.15;6.25;;;;;;;13.84;73.27;98715.72;2618518;54;20042;-64
2021/10/20 05:50:33;;;;;;;9.23;6.75;;;;;;;13.83;73.40;98713.25;2618305;54;20081;-64
2021/10/20 05:53:06;;;;;;;7.60;6.75;;;;;;;13.84;73.08;98714.91;2618256;54;20530;-64
2021/10/20 05:55:36;;;;;;;9.80;6.63;;;;;;;13.84;73.35;98710.41;2618323;54;20042;-64
2021/10/20 05:58:06;;;;;;;8.23;6.53;;;;;;;13.86;73.48;98712.84;2617997;54;20034;-64
2021/10/20 06:00:36;;;;;;;7.60;6.68;;;;;;;13.86;73.25;98703.03;2618233;54;20033;-64
2021/10/20 06:03:06;;;;;;;9.52;6.90;;;;;;;13.87;73.64;98701.19;2618006;54;20023;-64
2021/10/20 06:05:37;;;;;;;7.63;6.60;;;;;;;13.88;73.49;98702.81;2618327;54;20086;-64
2021/10/20 06:08:09;;;;;;;9.05;7.80;;;;;;;13.92;73.22;98696.06;2617856;54;20031;-64
2021/10/20 06:10:39;;;;;;;10.60;7.15;;;;;;;13.96;73.62;98691.94;2617421;47;20030;-64
2021/10/20 06:13:08;;;;;;;13.23;6.43;;;;;;;14.00;73.54;98689.63;2617877;54;20074;-64
2021/10/20 06:15:41;;;;;;;9.57;7.13;;;;;;;14.02;72.97;98690.25;2617559;47;20046;-64
2021/10/20 06:18:12;;;;;;;8.20;6.93;;;;;;;14.07;73.12;98679.75;2618190;54;20027;-64
2021/10/20 06:20:42;;;;;;;8.48;6.60;;;;;;;14.13;73.27;98673.59;2618737;39;20446;-64
2021/10/20 06:23:14;;;;;;;8.27;7.05;;;;;;;14.18;73.27;98672.94;2618385;39;20680;-64
2021/10/20 06:25:44;;;;;;;9.35;7.15;;;;;;;14.23;73.07;98665.91;2618604;39;20477;-64
2021/10/20 06:28:13;;;;;;;11.40;7.22;;;;;;;14.27;72.68;98660.97;2617827;54;20042;-65
2021/10/20 06:30:43;;;;;;;9.50;6.75;;;;;;;14.30;72.80;98663.19;2617381;54;20134;-65
2021/10/20 06:33:13;;;;;;;8.85;7.00;;;;;;;14.32;72.67;98661.13;2618081;54;20039;-65
2021/10/20 06:35:43;;;;;;;9.57;6.93;;;;;;;14.34;72.70;98654.56;2617500;54;20061;-65
2021/10/20 06:38:15;;;;;;;9.00;6.35;;;;;;;14.34;72.50;98654.56;2618250;54;20035;-64
2021/10/20 06:40:44;;;;;;;7.07;6.38;;;;;;;14.40;72.78;98657.34;2618262;54;20146;-64
2021/10/20 06:43:14;;;;;;;9.32;6.30;;;;;;;14.42;72.40;98655.31;2616924;52;20034;-65
2021/10/20 06:45:44;;;;;;;12.68;6.55;;;;;;;14.51;72.67;98649.50;2618231;54;20028;-64
2021/10/20 06:48:13;;;;;;;7.95;6.32;;;;;;;14.58;72.25;98654.75;2618100;54;20604;-64
2021/10/20 06:50:43;;;;;;;6.97;6.00;;;;;;;14.63;71.99;98659.41;2617564;47;20045;-64
2021/10/20 06:53:15;;;;;;;11.85;6.80;;;;;;;14.64;72.31;98653.84;2617859;54;20035;-64
2021/10/20 06:55:45;;;;;;;6.72;6.13;;;;;;;14.69;72.05;98645.19;2618547;39;20477;-65
2021/10/20 06:58:15;;;;;;;7.28;6.57;;;;;;;14.76;72.18;98644.09;2617895;54;20039;-65
2021/10/20 07:00:44;;;;;;;7.72;6.95;;;;;;;14.82;72.13;98639.75;2618157;54;20077;-64
2021/10/20 07:03:14;;;;;;;8.65;6.07;;;;;;;14.92;71.28;98649.84;2617843;54;20037;-64
2021/10/20 07:05:44;;;;;;;10.07;6.40;;;;;;;14.93;71.80;98646.94;2617809;47;20030;-65
2021/10/20 07:08:17;;;;;;;9.75;6.82;;;;;;;15.01;71.78;98651.97;2618621;54;20030;-65
2021/10/20 07:10:46;;;;;;;7.53;6.35;;;;;;;15.07;71.49;98658.25;2618130;54;20037;-65
2021/10/20 07:13:16;;;;;;;7.43;6.65;;;;;;;15.12;71.56;98658.38;2617473;47;20027;-64
2021/10/20 07:15:47;;;;;;;9.00;7.03;;;;;;;15.24;71.39;98667.22;2618034;54;20026;-65
2021/10/20 07:18:17;;;;;;;9.18;6.53;;;;;;;15.28;71.06;98659.59;2618038;54;20202;-64
2021/10/20 07:20:47;;;;;;;7.15;5.50;;;;;;;15.29;70.96;98650.56;2618122;54;20026;-64
2021/10/20 07:23:19;;;;;;;8.88;7.13;;;;;;;15.33;70.64;98641.09;2617757;54;20033;-65
2021/10/20 07:25:49;;;;;;;10.27;5.65;;;;;;;15.38;70.94;98648.41;2618101;54;20034;-65
2021/10/20 07:28:18;;;;;;;8.95;6.25;;;;;;;15.42;70.50;98655.69;2617986;54;20034;-65
2021/10/20 07:30:48;;;;;;;11.98;6.32;;;;;;;15.49;70.73;98642.28;2618054;54;20045;-64
2021/10/20 07:33:17;;;;;;;6.63;5.90;;;;;;;15.55;69.92;98644.88;2617740;54;20130;-65
2021/10/20 07:35:47;;;;;;;7.97;5.90;;;;;;;15.57;70.52;98663.28;2617695;47;20526;-65
2021/10/20 07:38:19;;;;;;;6.28;5.25;;;;;;;15.58;70.09;98667.56;2618014;54;20038;-65
2021/10/20 07:40:49;;;;;;;7.72;6.30;;;;;;;15.54;70.20;98661.88;2618120;54;20030;-65
2021/10/20 07:43:21;;;;;;;9.80;6.80;;;;;;;15.57;70.05;98660.63;2617905;54;20070;-65
2021/10/20 07:45:51;;;;;;;8.02;6.22;;;;;;;15.59;70.18;98659.34;2618083;54;20030;-65
2021/10/20 07:48:20;;;;;;;10.15;5.30;;;;;;;15.63;70.01;98665.00;2617940;54;20041;-65
2021/10/20 07:50:50;;;;;;;6.68;6.00;;;;;;;15.68;70.43;98646.53;2618418;39;20482;-65
2021/10/20 07:53:22;;;;;;;7.03;6.10;;;;;;;15.76;69.94;98642.72;2617648;54;20471;-64
2021/10/20 07:55:52;;;;;;;9.25;6.15;;;;;;;15.77;69.75;98631.84;2618159;54;20133;-65
2021/10/20 07:58:22;;;;;;;6.82;5.72;;;;;;;15.95;69.35;98620.25;2618085;54;20026;-64
2021/10/20 08:00:52;;;;;;;7.30;6.60;;;;;;;16.06;69.42;98605.31;2621912;54;20086;-64
2021/10/20 08:03:22;;;;;;;7.57;5.90;;;;;;;16.12;68.97;98588.34;2622575;54;20042;-64
2021/10/20 11:15:08;;;;;;;4.75;4.35;;;;;;;17.66;64.73;98407.63;2620865;47;20114;-66
2021/10/20 11:17:38;;;;;;;6.28;3.83;;;;;;;17.65;65.03;98408.69;2622245;54;20031;-68
2021/10/20 11:20:10;;;;;;;8.45;4.30;;;;;;;17.64;64.59;98388.38;2622021;54;20034;-68
2021/10/20 11:22:40;;;;;;;7.50;4.30;;;;;;;17.63;64.83;98387.56;2621163;54;20031;-67
2021/10/20 11:25:13;;;;;;;7.20;4.00;;;;;;;17.72;64.74;98386.09;2622134;54;20042;-67
2021/10/20 11:27:48;;;;;;;6.57;3.65;;;;;;;17.76;64.61;98397.94;2622948;47;20023;-67
2021/10/20 11:30:23;;;;;;;5.32;3.88;;;;;;;17.78;65.08;98392.31;2620752;54;20046;-67
2021/10/20 11:32:53;;;;;;;5.82;4.10;;;;;;;17.92;64.60;98380.19;2620004;54;20042;-67
2021/10/20 11:35:24;;;;;;;6.25;4.25;;;;;;;18.01;64.71;98380.56;2620378;54;20034;-68
2021/10/20 11:37:55;;;;;;;8.20;3.45;;;;;;;18.06;63.81;98368.03;2620885;39;20393;-69
2021/10/20 11:40:26;;;;;;;5.18;3.63;;;;;;;18.15;63.96;98370.25;2620960;54;20045;-67
2021/10/20 11:42:55;;;;;;;5.78;3.50;;;;;;;18.14;63.47;98380.16;2619632;54;20037;-69
2021/10/20 11:45:30;;;;;;;5.18;4.03;;;;;;;18.10;63.74;98379.03;2619796;51;20034;-67
2021/10/20 11:48:05;;;;;;;4.88;3.90;;;;;;;18.02;63.85;98376.81;2621519;54;20045;-68
2021/10/20 11:50:34;;;;;;;4.55;3.85;;;;;;;17.99;64.25;98362.06;2620656;47;20049;-67
2021/10/20 11:53:07;;;;;;;5.40;3.92;;;;;;;18.02;64.14;98360.78;2621382;54;20142;-68
2021/10/20 11:55:44;;;;;;;5.30;3.97;;;;;;;18.05;63.64;98350.38;2621801;54;20042;-68
2021/10/20 11:58:22;;;;;;;7.47;4.43;;;;;;;18.07;63.90;98350.13;2619639;39;20446;-67
2021/10/20 12:00:56;;;;;;;4.35;3.75;;;;;;;18.04;63.79;98338.06;2619450;54;20542;-68
2021/10/20 12:03:34;;;;;;;4.75;4.15;;;;;;;17.99;63.85;98347.91;2620369;54;20030;-68
2021/10/20 12:06:07;;;;;;;4.03;3.50;;;;;;;17.93;64.45;98349.72;2620607;54;20561;-69
2021/10/20 12:08:38;;;;;;;5.90;4.03;;;;;;;17.94;64.28;98334.47;2620678;47;20029;-68
2021/10/20 12:11:08;;;;;;;5.47;3.38;;;;;;;17.92;64.06;98321.38;2621882;54;20035;-68
2021/10/20 12:13:38;;;;;;;5.40;3.85;;;;;;;18.01;64.09;98335.09;2622343;54;20042;-69
2021/10/20 12:16:15;;;;;;;5.05;4.35;;;;;;;18.05;64.05;98325.50;2621851;54;20030;-68
2021/10/20 12:18:46;;;;;;;5.78;4.05;;;;;;;18.09;64.27;98328.50;2622133;54;20026;-68
2021/10/20 12:21:18;;;;;;;6.53;3.83;;;;;;;18.11;64.14;98316.47;2621942;54;20034;-68
2021/10/20 12:23:49;;;;;;;4.93;4.47;;;;;;;18.07;63.74;98316.16;2621469;54;20048;-68
2021/10/20 12:26:19;;;;;;;6.35;5.72;;;;;;;18.05;64.30;98307.59;2622142;54;20077;-68
2021/10/20 12:28:48;;;;;;;4.85;4.00;;;;;;;18.04;64.34;98307.81;2621696;54;20079;-68
2021/10/20 12:31:22;;;;;;;6.80;3.50;;;;;;;18.05;64.00;98304.13;2621759;54;20099;-67
2021/10/20 12:33:55;;;;;;;4.15;3.78;;;;;;;17.97;64.11;98302.69;2621038;54;20082;-68
2021/10/20 12:36:27;;;;;;;4.57;4.00;;;;;;;17.98;64.22;98282.91;2622580;54;20035;-68
2021/10/20 12:38:59;;;;;;;7.20;4.40;;;;;;;18.11;63.89;98279.00;2622378;47;20026;-68
2021/10/20 12:41:32;;;;;;;4.38;3.70;;;;;;;18.25;63.93;98285.56;2622377;47;20038;-67
2021/10/20 12:44:04;;;;;;;7.22;3.65;;;;;;;18.41;63.61;98272.28;2620752;54;20022;-68
2021/10/20 12:46:42;;;;;;;7.07;4.25;;;;;;;18.58;63.25;98267.63;2619769;54;20533;-68
2021/10/20 12:49:13;;;;;;;4.68;4.20;;;;;;;18.74;62.74;98274.72;2620707;54;20026;-68
2021/10/20 12:51:45;;;;;;;5.35;4.15;;;;;;;18.82;62.17;98262.72;2621380;54;20038;-67
2021/10/20 12:54:34;;;;;;;5.00;4.18;;;;;;;18.73;62.47;98277.63;2622136;54;20114;-67
2021/10/20 12:57:05;;;;;;;5.55;4.50;;;;;;;18.64;62.41;98276.47;2621732;39;20501;-67
2021/10/20 12:59:38;;;;;;;7.22;4.88;;;;;;;18.53;62.69;98254.19;2622348;54;20038;-68
2021/10/20 13:02:11;;;;;;;7.68;3.80;;;;;;;18.53;62.88;98248.81;2622202;54;20031;-68
2021/10/20 13:04:40;;;;;;;5.93;4.30;;;;;;;18.54;62.99;98237.09;2619653;54;20030;-67
2021/10/20 13:07:10;;;;;;;5.10;4.30;;;;;;;18.46;63.56;98224.19;2620781;54;20033;-68
2021/10/20 13:09:40;;;;;;;6.38;4.43;;;;;;;18.42;64.80;98204.34;2621588;54;20026;-67
2021/10/20 13:12:09;;;;;;;5.18;4.03;;;;;;;18.39;65.84;98223.59;2621838;47;20034;-67
2021/10/20 13:14:39;;;;;;;5.10;4.10;;;;;;;18.20;66.32;98233.88;2621508;54;20026;-67
2021/10/20 13:17:11;;;;;;;5.60;4.40;;;;;;;18.12;66.52;98221.78;2622136;54;20022;-67
2021/10/20 13:19:51;;;;;;;4.57;4.15;;;;;;;18.04;67.28;98211.53;2621619;47;20034;-66
2021/10/20 13:22:21;;;;;;;4.93;4.53;;;;;;;18.01;68.15;98202.19;2622803;54;20038;-68
2021/10/20 13:24:51;;;;;;;5.38;4.82;;;;;;;17.93;68.71;98191.16;2623034;54;20035;-68
2021/10/20 13:27:20;;;;;;;5.57;5.07;;;;;;;17.89;69.02;98195.41;2624363;54;20031;-68
2021/10/20 13:29:50;;;;;;;8.07;5.45;;;;;;;17.88;69.94;98191.91;2623839;54;20114;-68
2021/10/20 13:32:22;;;;;;;5.82;4.90;;;;;;;17.89;69.99;98206.09;2623753;54;20560;-68
2021/10/20 13:34:54;;;;;;;11.15;5.97;;;;;;;17.89;70.12;98198.06;2623566;54;20046;-67
2021/10/20 13:37:23;;;;;;;6.65;5.03;;;;;;;17.85;70.57;98192.41;2624511;54;20040;-68
2021/10/20 13:39:53;;;;;;;6.72;5.88;;;;;;;17.93;70.22;98178.59;2623130;54;20033;-69
2021/10/20 13:42:23;;;;;;;6.68;4.90;;;;;;;17.94;70.54;98188.22;2623637;47;20026;-67
2021/10/20 13:44:52;;;;;;;6.25;4.85;;;;;;;17.95;70.93;98181.78;2622796;54;20027;-68
2021/10/20 13:47:24;;;;;;;7.70;5.45;;;;;;;18.02;70.68;98182.41;2623310;54;20038;-68
2021/10/20 13:49:54;;;;;;;7.55;5.30;;;;;;;18.12;70.08;98175.50;2622521;54;20622;-69
2021/10/20 13:52:25;;;;;;;5.40;4.60;;;;;;;18.05;70.05;98191.78;2621667;47;20038;-68
2021/10/20 13:54:55;;;;;;;5.80;5.20;;;;;;;18.02;69.89;98184.25;2621450;54;20034;-68
2021/10/20 13:57:25;;;;;;;5.53;4.68;;;;;;;18.04;69.73;98174.09;2620735;54;20058;-69
2021/10/20 13:59:55;;;;;;;4.90;4.43;;;;;;;18.05;69.94;98167.72;2621651;54;20038;-67
2021/10/20 14:02:27;;;;;;;5.78;5.18;;;;;;;18.12;69.60;98164.81;2621254;54;20047;-67
2021/10/20 14:04:58;;;;;;;6.13;4.55;;;;;;;18.13;69.57;98169.13;2620847;54;20048;-68
2021/10/20 14:07:28;;;;;;;5.65;4.72;;;;;;;18.19;68.88;98168.06;2620880;47;20030;-68
2021/10/20 14:10:00;;;;;;;6.13;4.43;;;;;;;18.14;68.82;98160.81;2621427;54;20049;-67
2021/10/20 14:12:30;;;;;;;5.65;4.55;;;;;;;18.24;68.45;98163.53;2621166;54;20026;-68
2021/10/20 14:14:59;;;;;;;5.10;4.22;;;;;;;18.29;68.39;98147.56;2621049;54;20026;-68
2021/10/20 14:17:32;;;;;;;4.63;4.05;;;;;;;18.22;68.34;98144.28;2621790;39;20470;-68
2021/10/20 14:20:03;;;;;;;4.47;4.05;;;;;;;18.16;68.31;98160.56;2620849;47;20030;-67
2021/10/20 14:22:32;;;;;;;7.07;4.47;;;;;;;18.08;68.44;98140.44;2622012;54;20026;-68
2021/10/20 14:25:02;;;;;;;5.57;4.05;;;;;;;18.04;68.80;98139.34;2621853;54;20045;-67
2021/10/20 14:27:32;;;;;;;5.07;4.57;;;;;;;18.03;68.52;98125.16;2621574;54;20554;-68
2021/10/20 14:30:01;;;;;;;5.40;4.10;;;;;;;18.06;68.22;98130.00;2623320;54;20046;-68
2021/10/20 14:32:36;;;;;;;5.72;4.43;;;;;;;18.10;68.28;98132.16;2623712;54;20031;-67
2021/10/20 14:35:07;;;;;;;7.50;5.03;;;;;;;18.11;68.14;98109.69;2623598;54;20037;-68
2021/10/20 14:37:43;;;;;;;5.75;4.25;;;;;;;18.12;68.22;98119.34;2622161;54;20070;-68
2021/10/20 14:40:17;;;;;;;6.40;4.40;;;;;;;18.12;67.84;98119.34;2622035;54;20030;-68
2021/10/20 14:42:48;;;;;;;6.53;5.10;;;;;;;18.12;68.06;98130.84;2622386;54;20037;-67
2021/10/20 14:45:20;;;;;;;7.50;4.90;;;;;;;18.14;68.52;98131.41;2621919;54;20537;-69
2021/10/20 14:47:54;;;;;;;11.70;7.63;;;;;;;18.26;68.51;98136.56;2621882;54;20031;-68
2021/10/20 14:50:24;;;;;;;13.00;7.47;;;;;;;18.35;67.89;98118.13;2623458;39;20491;-70
2021/10/20 14:52:54;;;;;;;8.15;6.00;;;;;;;18.37;67.21;98116.00;2622086;47;20030;-68
2021/10/20 14:55:24;;;;;;;7.82;5.25;;;;;;;18.31;67.50;98115.19;2622258;54;20038;-68
2021/10/20 14:57:54;;;;;;;6.13;5.20;;;;;;;18.19;68.29;98126.06;2622393;47;20045;-68
2021/10/20 15:00:23;;;;;;;9.10;6.90;;;;;;;18.12;68.54;98135.38;2622432;54;20039;-68